Terminal Aerodrome Forecast
Issued by NWS Portland, OR

Home | Current Version | Previous Version | Text Only | Print | Product List | Glossary On
Versions: 1 2 3 4 5 6 7 8 9 10 11 12 13 14 15 16 17 18 19 20 21 22 23 24 25 26 27 28 29
000
FTUS46 KPQR 301723
TAFHIO
TAF
KHIO 301723Z 3018/3118 19004KT P6SM FEW008 SCT012
      TEMPO 3018/3019 4SM BR BKN006
     FM310300 18010KT P6SM BKN040 OVC060
     FM310500 18012G20KT 4SM -RA BR SCT013 OVC020
     FM310800 23007KT P6SM -SHRA BKN020=

USA.gov is the U.S. government's official web portal to all federal, state and local government web resources and services.